sensor_id;sensor_type;location;lat;lon;timestamp;P1;durP1;ratioP1;P2;durP2;ratioP2
59366;SDS011;45163;47.690;11.770;2023-02-28T00:00:34;7.60;;;5.20;;
59366;SDS011;45163;47.690;11.770;2023-02-28T00:03:01;5.57;;;4.70;;
59366;SDS011;45163;47.690;11.770;2023-02-28T00:05:28;10.13;;;5.27;;
59366;SDS011;45163;47.690;11.770;2023-02-28T00:07:54;18.00;;;8.87;;
59366;SDS011;45163;47.690;11.770;2023-02-28T00:10:22;17.17;;;8.40;;
59366;SDS011;45163;47.690;11.770;2023-02-28T00:12:51;9.60;;;6.30;;
59366;SDS011;45163;47.690;11.770;2023-02-28T00:15:17;7.10;;;5.43;;
59366;SDS011;45163;47.690;11.770;2023-02-28T00:17:44;8.80;;;5.83;;
59366;SDS011;45163;47.690;11.770;2023-02-28T00:20:11;9.87;;;6.67;;
59366;SDS011;45163;47.690;11.770;2023-02-28T00:22:38;19.13;;;9.30;;
59366;SDS011;45163;47.690;11.770;2023-02-28T00:25:06;7.60;;;4.80;;
59366;SDS011;45163;47.690;11.770;2023-02-28T00:27:35;6.27;;;4.80;;
59366;SDS011;45163;47.690;11.770;2023-02-28T00:30:03;8.27;;;5.93;;
59366;SDS011;45163;47.690;11.770;2023-02-28T00:32:32;9.13;;;5.63;;
59366;SDS011;45163;47.690;11.770;2023-02-28T00:35:00;7.13;;;5.57;;
59366;SDS011;45163;47.690;11.770;2023-02-28T00:37:26;6.33;;;5.43;;
59366;SDS011;45163;47.690;11.770;2023-02-28T00:39:52;8.10;;;5.53;;
59366;SDS011;45163;47.690;11.770;2023-02-28T00:42:18;9.00;;;6.20;;
59366;SDS011;45163;47.690;11.770;2023-02-28T00:44:44;9.07;;;6.00;;
59366;SDS011;45163;47.690;11.770;2023-02-28T00:47:10;7.87;;;5.73;;
59366;SDS011;45163;47.690;11.770;2023-02-28T00:49:36;8.17;;;5.70;;
59366;SDS011;45163;47.690;11.770;2023-02-28T00:52:02;8.00;;;5.97;;
59366;SDS011;45163;47.690;11.770;2023-02-28T00:54:28;9.00;;;6.23;;
59366;SDS011;45163;47.690;11.770;2023-02-28T00:56:54;10.97;;;5.77;;
59366;SDS011;45163;47.690;11.770;2023-02-28T00:59:21;8.23;;;5.70;;
59366;SDS011;45163;47.690;11.770;2023-02-28T01:01:47;7.67;;;5.90;;
59366;SDS011;45163;47.690;11.770;2023-02-28T01:04:14;8.83;;;6.47;;
59366;SDS011;45163;47.690;11.770;2023-02-28T01:06:40;6.87;;;5.67;;
59366;SDS011;45163;47.690;11.770;2023-02-28T01:09:06;7.97;;;5.83;;
59366;SDS011;45163;47.690;11.770;2023-02-28T01:11:34;7.63;;;5.67;;
59366;SDS011;45163;47.690;11.770;2023-02-28T01:14:00;7.10;;;5.63;;
59366;SDS011;45163;47.690;11.770;2023-02-28T01:16:26;8.13;;;5.67;;
59366;SDS011;45163;47.690;11.770;2023-02-28T01:18:53;10.03;;;6.37;;
59366;SDS011;45163;47.690;11.770;2023-02-28T01:21:20;9.27;;;6.07;;
59366;SDS011;45163;47.690;11.770;2023-02-28T01:23:47;7.83;;;5.87;;
59366;SDS011;45163;47.690;11.770;2023-02-28T01:26:18;8.97;;;6.17;;
59366;SDS011;45163;47.690;11.770;2023-02-28T01:28:46;7.57;;;5.23;;
59366;SDS011;45163;47.690;11.770;2023-02-28T01:31:13;7.13;;;4.93;;
59366;SDS011;45163;47.690;11.770;2023-02-28T01:33:39;7.03;;;5.30;;
59366;SDS011;45163;47.690;11.770;2023-02-28T01:36:07;9.17;;;5.20;;
59366;SDS011;45163;47.690;11.770;2023-02-28T01:38:33;9.23;;;5.10;;
59366;SDS011;45163;47.690;11.770;2023-02-28T01:40:59;5.87;;;4.60;;
59366;SDS011;45163;47.690;11.770;2023-02-28T01:43:27;10.27;;;5.20;;
59366;SDS011;45163;47.690;11.770;2023-02-28T01:45:55;9.30;;;5.33;;
59366;SDS011;45163;47.690;11.770;2023-02-28T01:48:24;7.73;;;5.30;;
59366;SDS011;45163;47.690;11.770;2023-02-28T01:50:56;7.03;;;5.40;;
59366;SDS011;45163;47.690;11.770;2023-02-28T01:53:29;6.13;;;5.17;;
59366;SDS011;45163;47.690;11.770;2023-02-28T01:56:00;8.03;;;4.93;;
59366;SDS011;45163;47.690;11.770;2023-02-28T01:58:32;6.73;;;5.17;;
59366;SDS011;45163;47.690;11.770;2023-02-28T02:00:59;8.97;;;5.57;;
59366;SDS011;45163;47.690;11.770;2023-02-28T02:03:25;7.80;;;5.30;;
59366;SDS011;45163;47.690;11.770;2023-02-28T02:05:52;6.40;;;5.00;;
59366;SDS011;45163;47.690;11.770;2023-02-28T02:08:28;5.87;;;4.70;;
59366;SDS011;45163;47.690;11.770;2023-02-28T02:10:56;6.50;;;4.97;;
59366;SDS011;45163;47.690;11.770;2023-02-28T02:18:50;7.93;;;5.37;;
59366;SDS011;45163;47.690;11.770;2023-02-28T02:33:03;7.70;;;5.20;;
59366;SDS011;45163;47.690;11.770;2023-02-28T02:35:31;8.10;;;5.20;;
59366;SDS011;45163;47.690;11.770;2023-02-28T02:38:05;7.43;;;5.20;;
59366;SDS011;45163;47.690;11.770;2023-02-28T02:40:42;8.50;;;5.30;;
59366;SDS011;45163;47.690;11.770;2023-02-28T02:43:18;8.07;;;5.20;;
59366;SDS011;45163;47.690;11.770;2023-02-28T02:45:56;8.60;;;5.00;;
59366;SDS011;45163;47.690;11.770;2023-02-28T02:48:29;7.23;;;5.57;;
59366;SDS011;45163;47.690;11.770;2023-02-28T02:50:59;6.63;;;5.07;;
59366;SDS011;45163;47.690;11.770;2023-02-28T02:53:36;9.50;;;5.40;;
59366;SDS011;45163;47.690;11.770;2023-02-28T02:56:07;8.00;;;5.10;;
59366;SDS011;45163;47.690;11.770;2023-02-28T02:58:39;7.23;;;5.43;;
59366;SDS011;45163;47.690;11.770;2023-02-28T03:01:10;7.53;;;5.37;;
59366;SDS011;45163;47.690;11.770;2023-02-28T03:03:39;8.13;;;5.53;;
59366;SDS011;45163;47.690;11.770;2023-02-28T03:06:06;6.80;;;5.20;;
59366;SDS011;45163;47.690;11.770;2023-02-28T03:08:36;6.20;;;5.10;;
59366;SDS011;45163;47.690;11.770;2023-02-28T03:11:07;7.17;;;5.23;;
59366;SDS011;45163;47.690;11.770;2023-02-28T03:13:47;7.00;;;5.37;;
59366;SDS011;45163;47.690;11.770;2023-02-28T03:24:56;6.97;;;5.40;;
59366;SDS011;45163;47.690;11.770;2023-02-28T03:27:27;8.40;;;5.37;;
59366;SDS011;45163;47.690;11.770;2023-02-28T03:33:10;6.10;;;4.60;;
59366;SDS011;45163;47.690;11.770;2023-02-28T03:35:48;6.67;;;4.77;;
59366;SDS011;45163;47.690;11.770;2023-02-28T03:38:30;7.47;;;5.23;;
59366;SDS011;45163;47.690;11.770;2023-02-28T03:41:00;7.43;;;4.87;;
59366;SDS011;45163;47.690;11.770;2023-02-28T03:43:33;6.23;;;4.60;;
59366;SDS011;45163;47.690;11.770;2023-02-28T03:46:04;6.93;;;5.20;;
59366;SDS011;45163;47.690;11.770;2023-02-28T03:48:42;7.30;;;4.60;;
59366;SDS011;45163;47.690;11.770;2023-02-28T03:51:14;5.97;;;4.10;;
59366;SDS011;45163;47.690;11.770;2023-02-28T03:53:59;7.87;;;5.03;;
59366;SDS011;45163;47.690;11.770;2023-02-28T03:56:37;7.87;;;4.83;;
59366;SDS011;45163;47.690;11.770;2023-02-28T03:59:16;7.43;;;4.70;;
59366;SDS011;45163;47.690;11.770;2023-02-28T04:01:48;9.47;;;5.23;;
59366;SDS011;45163;47.690;11.770;2023-02-28T04:04:15;8.50;;;5.07;;
59366;SDS011;45163;47.690;11.770;2023-02-28T04:06:42;8.70;;;5.40;;
59366;SDS011;45163;47.690;11.770;2023-02-28T04:09:10;8.63;;;4.50;;
59366;SDS011;45163;47.690;11.770;2023-02-28T04:11:39;6.97;;;4.73;;
59366;SDS011;45163;47.690;11.770;2023-02-28T04:14:07;6.93;;;4.77;;
59366;SDS011;45163;47.690;11.770;2023-02-28T04:16:36;7.03;;;4.77;;
59366;SDS011;45163;47.690;11.770;2023-02-28T04:19:04;7.03;;;5.27;;
59366;SDS011;45163;47.690;11.770;2023-02-28T04:21:33;8.73;;;5.13;;
59366;SDS011;45163;47.690;11.770;2023-02-28T04:24:07;7.10;;;5.03;;
59366;SDS011;45163;47.690;11.770;2023-02-28T04:26:42;8.13;;;5.70;;
59366;SDS011;45163;47.690;11.770;2023-02-28T04:29:11;6.83;;;5.30;;
59366;SDS011;45163;47.690;11.770;2023-02-28T04:31:39;7.33;;;4.90;;
59366;SDS011;45163;47.690;11.770;2023-02-28T04:34:05;8.60;;;4.47;;
59366;SDS011;45163;47.690;11.770;2023-02-28T04:36:32;7.20;;;5.00;;
59366;SDS011;45163;47.690;11.770;2023-02-28T04:38:58;5.87;;;4.70;;
59366;SDS011;45163;47.690;11.770;2023-02-28T04:41:24;8.23;;;5.00;;
59366;SDS011;45163;47.690;11.770;2023-02-28T04:43:50;6.70;;;4.50;;
59366;SDS011;45163;47.690;11.770;2023-02-28T04:46:17;10.83;;;5.30;;
59366;SDS011;45163;47.690;11.770;2023-02-28T04:48:44;8.40;;;5.23;;
59366;SDS011;45163;47.690;11.770;2023-02-28T04:51:12;9.50;;;5.33;;
59366;SDS011;45163;47.690;11.770;2023-02-28T04:53:40;7.33;;;5.17;;
59366;SDS011;45163;47.690;11.770;2023-02-28T04:56:07;9.10;;;5.50;;
59366;SDS011;45163;47.690;11.770;2023-02-28T04:58:33;6.37;;;5.20;;
59366;SDS011;45163;47.690;11.770;2023-02-28T05:01:03;8.90;;;4.80;;
59366;SDS011;45163;47.690;11.770;2023-02-28T05:03:41;7.57;;;4.70;;
59366;SDS011;45163;47.690;11.770;2023-02-28T05:06:08;7.30;;;4.87;;
59366;SDS011;45163;47.690;11.770;2023-02-28T05:08:34;5.87;;;4.53;;
59366;SDS011;45163;47.690;11.770;2023-02-28T05:11:01;6.73;;;4.33;;
59366;SDS011;45163;47.690;11.770;2023-02-28T05:13:27;7.70;;;5.03;;
59366;SDS011;45163;47.690;11.770;2023-02-28T05:15:54;9.03;;;5.27;;
59366;SDS011;45163;47.690;11.770;2023-02-28T05:18:20;13.57;;;5.10;;
59366;SDS011;45163;47.690;11.770;2023-02-28T05:20:47;9.73;;;5.37;;
59366;SDS011;45163;47.690;11.770;2023-02-28T05:23:13;8.17;;;5.20;;
59366;SDS011;45163;47.690;11.770;2023-02-28T05:25:40;8.17;;;4.70;;
59366;SDS011;45163;47.690;11.770;2023-02-28T05:28:07;6.03;;;4.80;;
59366;SDS011;45163;47.690;11.770;2023-02-28T05:30:33;10.63;;;5.80;;
59366;SDS011;45163;47.690;11.770;2023-02-28T05:32:59;29.83;;;10.63;;
59366;SDS011;45163;47.690;11.770;2023-02-28T05:35:25;28.70;;;13.97;;
59366;SDS011;45163;47.690;11.770;2023-02-28T05:37:52;20.67;;;9.80;;
59366;SDS011;45163;47.690;11.770;2023-02-28T05:40:18;9.90;;;6.03;;
59366;SDS011;45163;47.690;11.770;2023-02-28T05:42:46;8.63;;;5.50;;
59366;SDS011;45163;47.690;11.770;2023-02-28T05:45:12;6.37;;;5.03;;
59366;SDS011;45163;47.690;11.770;2023-02-28T05:47:38;11.20;;;7.20;;
59366;SDS011;45163;47.690;11.770;2023-02-28T05:50:07;16.00;;;9.10;;
59366;SDS011;45163;47.690;11.770;2023-02-28T05:52:35;14.43;;;8.20;;
59366;SDS011;45163;47.690;11.770;2023-02-28T05:55:00;16.33;;;10.23;;
59366;SDS011;45163;47.690;11.770;2023-02-28T05:57:26;15.20;;;8.77;;
59366;SDS011;45163;47.690;11.770;2023-02-28T05:59:52;11.87;;;6.80;;
59366;SDS011;45163;47.690;11.770;2023-02-28T06:02:18;11.00;;;6.00;;
59366;SDS011;45163;47.690;11.770;2023-02-28T06:04:45;11.30;;;6.43;;
59366;SDS011;45163;47.690;11.770;2023-02-28T06:07:11;10.47;;;6.23;;
59366;SDS011;45163;47.690;11.770;2023-02-28T06:09:37;12.33;;;6.00;;
59366;SDS011;45163;47.690;11.770;2023-02-28T06:12:04;11.93;;;6.23;;
59366;SDS011;45163;47.690;11.770;2023-02-28T06:14:33;10.30;;;6.47;;
59366;SDS011;45163;47.690;11.770;2023-02-28T06:16:59;9.40;;;6.80;;
59366;SDS011;45163;47.690;11.770;2023-02-28T06:19:26;10.50;;;7.10;;
59366;SDS011;45163;47.690;11.770;2023-02-28T06:21:53;14.23;;;7.67;;
59366;SDS011;45163;47.690;11.770;2023-02-28T06:24:20;12.73;;;7.33;;
59366;SDS011;45163;47.690;11.770;2023-02-28T06:26:47;16.57;;;8.17;;
59366;SDS011;45163;47.690;11.770;2023-02-28T06:29:13;11.83;;;7.70;;
59366;SDS011;45163;47.690;11.770;2023-02-28T06:31:42;11.93;;;7.77;;
59366;SDS011;45163;47.690;11.770;2023-02-28T06:34:12;13.87;;;8.37;;
59366;SDS011;45163;47.690;11.770;2023-02-28T06:36:39;15.50;;;8.50;;
59366;SDS011;45163;47.690;11.770;2023-02-28T06:39:07;13.20;;;8.87;;
59366;SDS011;45163;47.690;11.770;2023-02-28T06:41:34;17.60;;;9.03;;
59366;SDS011;45163;47.690;11.770;2023-02-28T06:44:08;24.47;;;11.27;;
59366;SDS011;45163;47.690;11.770;2023-02-28T06:46:42;19.23;;;10.77;;
59366;SDS011;45163;47.690;11.770;2023-02-28T06:49:09;12.57;;;8.03;;
59366;SDS011;45163;47.690;11.770;2023-02-28T06:51:36;11.57;;;7.60;;
59366;SDS011;45163;47.690;11.770;2023-02-28T06:54:04;12.17;;;8.23;;
59366;SDS011;45163;47.690;11.770;2023-02-28T06:56:32;12.40;;;7.73;;
59366;SDS011;45163;47.690;11.770;2023-02-28T06:58:58;12.63;;;8.23;;
59366;SDS011;45163;47.690;11.770;2023-02-28T07:01:24;12.60;;;8.93;;
59366;SDS011;45163;47.690;11.770;2023-02-28T07:03:50;15.47;;;8.33;;
59366;SDS011;45163;47.690;11.770;2023-02-28T07:06:18;13.77;;;9.20;;
59366;SDS011;45163;47.690;11.770;2023-02-28T07:08:45;11.60;;;7.23;;
59366;SDS011;45163;47.690;11.770;2023-02-28T07:11:11;10.10;;;6.73;;
59366;SDS011;45163;47.690;11.770;2023-02-28T07:13:37;12.20;;;5.97;;
59366;SDS011;45163;47.690;11.770;2023-02-28T07:16:04;10.17;;;7.67;;
59366;SDS011;45163;47.690;11.770;2023-02-28T07:18:32;11.37;;;8.27;;
59366;SDS011;45163;47.690;11.770;2023-02-28T07:21:01;14.27;;;7.97;;
59366;SDS011;45163;47.690;11.770;2023-02-28T07:23:27;13.23;;;8.37;;
59366;SDS011;45163;47.690;11.770;2023-02-28T07:25:53;15.63;;;8.13;;
59366;SDS011;45163;47.690;11.770;2023-02-28T07:28:19;19.63;;;10.80;;
59366;SDS011;45163;47.690;11.770;2023-02-28T07:30:45;28.00;;;14.87;;
59366;SDS011;45163;47.690;11.770;2023-02-28T07:33:12;29.63;;;13.23;;
59366;SDS011;45163;47.690;11.770;2023-02-28T07:35:38;18.33;;;10.97;;
59366;SDS011;45163;47.690;11.770;2023-02-28T07:38:04;20.73;;;10.13;;
59366;SDS011;45163;47.690;11.770;2023-02-28T07:40:30;18.07;;;10.30;;
59366;SDS011;45163;47.690;11.770;2023-02-28T07:42:56;18.87;;;9.83;;
59366;SDS011;45163;47.690;11.770;2023-02-28T07:45:25;14.63;;;9.60;;
59366;SDS011;45163;47.690;11.770;2023-02-28T07:47:52;19.33;;;8.57;;
59366;SDS011;45163;47.690;11.770;2023-02-28T07:50:18;15.93;;;9.03;;
59366;SDS011;45163;47.690;11.770;2023-02-28T07:52:44;15.67;;;9.17;;
59366;SDS011;45163;47.690;11.770;2023-02-28T07:55:10;15.37;;;8.30;;
59366;SDS011;45163;47.690;11.770;2023-02-28T07:57:36;11.40;;;6.60;;
59366;SDS011;45163;47.690;11.770;2023-02-28T08:00:04;8.27;;;5.97;;
59366;SDS011;45163;47.690;11.770;2023-02-28T08:02:32;8.33;;;6.37;;
59366;SDS011;45163;47.690;11.770;2023-02-28T08:04:59;6.43;;;5.13;;
59366;SDS011;45163;47.690;11.770;2023-02-28T08:07:25;4.80;;;4.30;;
59366;SDS011;45163;47.690;11.770;2023-02-28T08:09:51;7.90;;;5.60;;
59366;SDS011;45163;47.690;11.770;2023-02-28T08:12:17;5.60;;;4.93;;
59366;SDS011;45163;47.690;11.770;2023-02-28T08:14:43;11.27;;;6.97;;
59366;SDS011;45163;47.690;11.770;2023-02-28T08:17:09;5.80;;;5.03;;
59366;SDS011;45163;47.690;11.770;2023-02-28T08:19:36;7.57;;;6.00;;
59366;SDS011;45163;47.690;11.770;2023-02-28T08:22:02;8.03;;;5.30;;
59366;SDS011;45163;47.690;11.770;2023-02-28T08:24:31;6.70;;;5.50;;
59366;SDS011;45163;47.690;11.770;2023-02-28T08:26:58;8.00;;;5.63;;
59366;SDS011;45163;47.690;11.770;2023-02-28T08:29:25;5.50;;;5.00;;
59366;SDS011;45163;47.690;11.770;2023-02-28T08:31:51;6.17;;;5.57;;
59366;SDS011;45163;47.690;11.770;2023-02-28T08:34:17;7.67;;;5.20;;
59366;SDS011;45163;47.690;11.770;2023-02-28T08:36:43;5.87;;;5.27;;
59366;SDS011;45163;47.690;11.770;2023-02-28T08:39:10;6.17;;;5.37;;
59366;SDS011;45163;47.690;11.770;2023-02-28T08:41:36;6.00;;;5.13;;
59366;SDS011;45163;47.690;11.770;2023-02-28T08:44:02;18.13;;;9.13;;
59366;SDS011;45163;47.690;11.770;2023-02-28T08:46:28;17.17;;;9.10;;
59366;SDS011;45163;47.690;11.770;2023-02-28T08:48:57;22.43;;;10.40;;
59366;SDS011;45163;47.690;11.770;2023-02-28T08:51:26;21.17;;;9.27;;
59366;SDS011;45163;47.690;11.770;2023-02-28T08:53:57;49.47;;;17.60;;
59366;SDS011;45163;47.690;11.770;2023-02-28T08:56:26;39.97;;;14.97;;
59366;SDS011;45163;47.690;11.770;2023-02-28T08:58:54;49.30;;;17.17;;
59366;SDS011;45163;47.690;11.770;2023-02-28T09:01:25;31.50;;;12.87;;
59366;SDS011;45163;47.690;11.770;2023-02-28T09:03:53;24.20;;;11.40;;
59366;SDS011;45163;47.690;11.770;2023-02-28T09:06:21;21.77;;;9.57;;
59366;SDS011;45163;47.690;11.770;2023-02-28T09:08:49;14.17;;;7.30;;
59366;SDS011;45163;47.690;11.770;2023-02-28T09:11:15;7.87;;;6.17;;
59366;SDS011;45163;47.690;11.770;2023-02-28T09:13:42;8.13;;;6.30;;
59366;SDS011;45163;47.690;11.770;2023-02-28T09:16:10;7.83;;;6.07;;
59366;SDS011;45163;47.690;11.770;2023-02-28T09:18:38;5.70;;;4.70;;
59366;SDS011;45163;47.690;11.770;2023-02-28T09:21:08;4.20;;;3.80;;
59366;SDS011;45163;47.690;11.770;2023-02-28T09:23:43;5.27;;;4.60;;
59366;SDS011;45163;47.690;11.770;2023-02-28T09:26:17;4.80;;;4.30;;
59366;SDS011;45163;47.690;11.770;2023-02-28T09:28:48;5.93;;;4.17;;
59366;SDS011;45163;47.690;11.770;2023-02-28T09:31:16;6.67;;;4.43;;
59366;SDS011;45163;47.690;11.770;2023-02-28T09:33:47;5.37;;;4.23;;
59366;SDS011;45163;47.690;11.770;2023-02-28T09:36:14;5.07;;;4.37;;
59366;SDS011;45163;47.690;11.770;2023-02-28T09:38:39;5.17;;;4.50;;
59366;SDS011;45163;47.690;11.770;2023-02-28T09:41:11;4.40;;;3.90;;
59366;SDS011;45163;47.690;11.770;2023-02-28T09:43:40;4.97;;;4.47;;
59366;SDS011;45163;47.690;11.770;2023-02-28T09:49:00;6.53;;;4.97;;
59366;SDS011;45163;47.690;11.770;2023-02-28T09:54:17;6.33;;;5.40;;
59366;SDS011;45163;47.690;11.770;2023-02-28T09:57:02;6.43;;;5.70;;
59366;SDS011;45163;47.690;11.770;2023-02-28T10:05:18;7.93;;;6.53;;
59366;SDS011;45163;47.690;11.770;2023-02-28T10:07:59;7.27;;;6.03;;
59366;SDS011;45163;47.690;11.770;2023-02-28T10:10:33;6.97;;;6.17;;
59366;SDS011;45163;47.690;11.770;2023-02-28T10:15:58;8.53;;;6.33;;
59366;SDS011;45163;47.690;11.770;2023-02-28T10:18:30;8.23;;;6.50;;
59366;SDS011;45163;47.690;11.770;2023-02-28T10:21:15;8.17;;;6.80;;
59366;SDS011;45163;47.690;11.770;2023-02-28T10:23:45;7.90;;;6.87;;
59366;SDS011;45163;47.690;11.770;2023-02-28T10:26:14;7.50;;;6.67;;
59366;SDS011;45163;47.690;11.770;2023-02-28T10:28:42;11.17;;;6.87;;
59366;SDS011;45163;47.690;11.770;2023-02-28T10:31:14;10.00;;;7.70;;
59366;SDS011;45163;47.690;11.770;2023-02-28T10:33:43;8.47;;;6.87;;
59366;SDS011;45163;47.690;11.770;2023-02-28T10:36:14;9.20;;;7.27;;
59366;SDS011;45163;47.690;11.770;2023-02-28T10:38:43;9.73;;;7.10;;
59366;SDS011;45163;47.690;11.770;2023-02-28T10:41:12;14.07;;;7.93;;
59366;SDS011;45163;47.690;11.770;2023-02-28T10:43:41;7.73;;;6.50;;
59366;SDS011;45163;47.690;11.770;2023-02-28T10:51:16;9.23;;;7.17;;
59366;SDS011;45163;47.690;11.770;2023-02-28T10:53:47;8.60;;;7.20;;
59366;SDS011;45163;47.690;11.770;2023-02-28T10:56:22;8.60;;;7.53;;
59366;SDS011;45163;47.690;11.770;2023-02-28T11:01:35;12.90;;;7.90;;
59366;SDS011;45163;47.690;11.770;2023-02-28T11:04:49;9.57;;;7.83;;
59366;SDS011;45163;47.690;11.770;2023-02-28T11:07:17;9.60;;;8.20;;
59366;SDS011;45163;47.690;11.770;2023-02-28T11:09:46;9.07;;;7.47;;
59366;SDS011;45163;47.690;11.770;2023-02-28T11:15:26;10.33;;;7.73;;
59366;SDS011;45163;47.690;11.770;2023-02-28T11:20:30;12.03;;;9.07;;
59366;SDS011;45163;47.690;11.770;2023-02-28T11:22:59;10.40;;;8.17;;
59366;SDS011;45163;47.690;11.770;2023-02-28T11:25:30;10.20;;;7.93;;
59366;SDS011;45163;47.690;11.770;2023-02-28T11:28:04;10.80;;;8.43;;
59366;SDS011;45163;47.690;11.770;2023-02-28T11:30:39;10.77;;;8.67;;
59366;SDS011;45163;47.690;11.770;2023-02-28T11:35:56;11.30;;;8.00;;
59366;SDS011;45163;47.690;11.770;2023-02-28T11:38:25;9.93;;;8.63;;
59366;SDS011;45163;47.690;11.770;2023-02-28T11:43:28;11.63;;;8.90;;
59366;SDS011;45163;47.690;11.770;2023-02-28T11:51:29;11.57;;;8.70;;
59366;SDS011;45163;47.690;11.770;2023-02-28T11:56:53;10.83;;;8.23;;
59366;SDS011;45163;47.690;11.770;2023-02-28T12:07:50;11.53;;;8.20;;
59366;SDS011;45163;47.690;11.770;2023-02-28T12:11:15;10.53;;;8.30;;
59366;SDS011;45163;47.690;11.770;2023-02-28T12:21:22;10.63;;;8.63;;
59366;SDS011;45163;47.690;11.770;2023-02-28T12:24:00;10.93;;;8.97;;
59366;SDS011;45163;47.690;11.770;2023-02-28T12:26:36;13.60;;;9.43;;
59366;SDS011;45163;47.690;11.770;2023-02-28T12:32:17;9.93;;;8.40;;
59366;SDS011;45163;47.690;11.770;2023-02-28T12:35:21;11.93;;;8.93;;
59366;SDS011;45163;47.690;11.770;2023-02-28T12:37:47;11.60;;;9.00;;
59366;SDS011;45163;47.690;11.770;2023-02-28T12:40:20;10.33;;;8.67;;
59366;SDS011;45163;47.690;11.770;2023-02-28T12:42:52;12.67;;;9.27;;
59366;SDS011;45163;47.690;11.770;2023-02-28T12:45:34;11.93;;;8.73;;
59366;SDS011;45163;47.690;11.770;2023-02-28T12:48:04;10.63;;;9.17;;
59366;SDS011;45163;47.690;11.770;2023-02-28T12:50:33;10.63;;;8.83;;
59366;SDS011;45163;47.690;11.770;2023-02-28T12:55:47;10.43;;;8.97;;
59366;SDS011;45163;47.690;11.770;2023-02-28T13:09:58;13.03;;;9.07;;
59366;SDS011;45163;47.690;11.770;2023-02-28T13:12:26;15.10;;;9.20;;
59366;SDS011;45163;47.690;11.770;2023-02-28T13:15:01;10.67;;;8.93;;
59366;SDS011;45163;47.690;11.770;2023-02-28T13:18:19;10.80;;;8.90;;
59366;SDS011;45163;47.690;11.770;2023-02-28T13:20:58;12.03;;;9.23;;
59366;SDS011;45163;47.690;11.770;2023-02-28T13:23:56;12.07;;;9.60;;
59366;SDS011;45163;47.690;11.770;2023-02-28T13:34:28;11.63;;;9.40;;
59366;SDS011;45163;47.690;11.770;2023-02-28T13:39:47;11.30;;;9.40;;
59366;SDS011;45163;47.690;11.770;2023-02-28T13:48:14;13.93;;;10.93;;
59366;SDS011;45163;47.690;11.770;2023-02-28T13:50:34;14.27;;;10.27;;
59366;SDS011;45163;47.690;11.770;2023-02-28T14:01:28;17.00;;;12.80;;
59366;SDS011;45163;47.690;11.770;2023-02-28T14:06:53;16.63;;;12.37;;
59366;SDS011;45163;47.690;11.770;2023-02-28T14:09:28;19.43;;;11.97;;
59366;SDS011;45163;47.690;11.770;2023-02-28T14:11:54;16.60;;;12.30;;
59366;SDS011;45163;47.690;11.770;2023-02-28T14:17:23;15.73;;;12.37;;
59366;SDS011;45163;47.690;11.770;2023-02-28T14:19:49;16.93;;;12.77;;
59366;SDS011;45163;47.690;11.770;2023-02-28T14:25:17;18.13;;;13.03;;
59366;SDS011;45163;47.690;11.770;2023-02-28T14:28:12;19.27;;;13.67;;
59366;SDS011;45163;47.690;11.770;2023-02-28T14:30:57;17.90;;;13.17;;
59366;SDS011;45163;47.690;11.770;2023-02-28T14:36:36;18.37;;;13.40;;
59366;SDS011;45163;47.690;11.770;2023-02-28T14:39:20;17.20;;;12.60;;
59366;SDS011;45163;47.690;11.770;2023-02-28T14:41:49;22.13;;;13.53;;
59366;SDS011;45163;47.690;11.770;2023-02-28T14:46:46;18.13;;;13.50;;
59366;SDS011;45163;47.690;11.770;2023-02-28T14:49:26;17.20;;;13.23;;
59366;SDS011;45163;47.690;11.770;2023-02-28T14:54:40;17.67;;;11.97;;
59366;SDS011;45163;47.690;11.770;2023-02-28T14:57:20;21.50;;;13.30;;
59366;SDS011;45163;47.690;11.770;2023-02-28T15:02:42;16.97;;;12.33;;
59366;SDS011;45163;47.690;11.770;2023-02-28T15:07:38;15.47;;;11.57;;
59366;SDS011;45163;47.690;11.770;2023-02-28T15:10:08;17.30;;;12.60;;
59366;SDS011;45163;47.690;11.770;2023-02-28T15:12:37;17.23;;;12.37;;
59366;SDS011;45163;47.690;11.770;2023-02-28T15:15:06;18.17;;;12.83;;
59366;SDS011;45163;47.690;11.770;2023-02-28T15:17:39;15.60;;;12.50;;
59366;SDS011;45163;47.690;11.770;2023-02-28T15:20:10;17.10;;;12.30;;
59366;SDS011;45163;47.690;11.770;2023-02-28T15:22:39;16.37;;;11.53;;
59366;SDS011;45163;47.690;11.770;2023-02-28T15:25:05;18.57;;;13.27;;
59366;SDS011;45163;47.690;11.770;2023-02-28T15:27:33;17.43;;;12.33;;
59366;SDS011;45163;47.690;11.770;2023-02-28T15:30:08;15.33;;;12.27;;
59366;SDS011;45163;47.690;11.770;2023-02-28T15:33:07;16.77;;;12.17;;
59366;SDS011;45163;47.690;11.770;2023-02-28T15:35:44;16.13;;;11.67;;
59366;SDS011;45163;47.690;11.770;2023-02-28T15:38:15;16.37;;;12.27;;
59366;SDS011;45163;47.690;11.770;2023-02-28T15:40:45;15.00;;;11.90;;
59366;SDS011;45163;47.690;11.770;2023-02-28T15:43:32;15.90;;;11.77;;
59366;SDS011;45163;47.690;11.770;2023-02-28T15:45:59;15.13;;;11.70;;
59366;SDS011;45163;47.690;11.770;2023-02-28T15:48:33;16.57;;;13.10;;
59366;SDS011;45163;47.690;11.770;2023-02-28T15:53:29;18.27;;;13.03;;
59366;SDS011;45163;47.690;11.770;2023-02-28T15:56:03;16.47;;;12.37;;
59366;SDS011;45163;47.690;11.770;2023-02-28T15:58:32;16.47;;;12.10;;
59366;SDS011;45163;47.690;11.770;2023-02-28T16:01:03;15.13;;;11.30;;
59366;SDS011;45163;47.690;11.770;2023-02-28T16:03:39;16.83;;;11.77;;
59366;SDS011;45163;47.690;11.770;2023-02-28T16:06:55;17.07;;;12.87;;
59366;SDS011;45163;47.690;11.770;2023-02-28T16:09:00;16.00;;;11.97;;
59366;SDS011;45163;47.690;11.770;2023-02-28T16:11:26;15.10;;;11.73;;
59366;SDS011;45163;47.690;11.770;2023-02-28T16:13:53;15.73;;;11.80;;
59366;SDS011;45163;47.690;11.770;2023-02-28T16:16:20;15.13;;;11.70;;
59366;SDS011;45163;47.690;11.770;2023-02-28T16:18:49;18.23;;;13.00;;
59366;SDS011;45163;47.690;11.770;2023-02-28T16:21:16;18.23;;;12.50;;
59366;SDS011;45163;47.690;11.770;2023-02-28T16:23:42;19.10;;;13.43;;
59366;SDS011;45163;47.690;11.770;2023-02-28T16:26:08;18.83;;;13.03;;
59366;SDS011;45163;47.690;11.770;2023-02-28T16:28:44;16.67;;;12.77;;
59366;SDS011;45163;47.690;11.770;2023-02-28T16:31:10;18.37;;;12.80;;
59366;SDS011;45163;47.690;11.770;2023-02-28T16:33:45;17.17;;;12.50;;
59366;SDS011;45163;47.690;11.770;2023-02-28T16:36:15;19.00;;;13.00;;
59366;SDS011;45163;47.690;11.770;2023-02-28T16:38:50;17.80;;;12.80;;
59366;SDS011;45163;47.690;11.770;2023-02-28T16:41:18;18.13;;;13.10;;
59366;SDS011;45163;47.690;11.770;2023-02-28T16:43:47;17.57;;;12.50;;
59366;SDS011;45163;47.690;11.770;2023-02-28T16:46:14;19.50;;;13.30;;
59366;SDS011;45163;47.690;11.770;2023-02-28T16:48:42;19.40;;;13.90;;
59366;SDS011;45163;47.690;11.770;2023-02-28T16:51:15;19.67;;;13.27;;
59366;SDS011;45163;47.690;11.770;2023-02-28T16:53:42;18.00;;;12.87;;
59366;SDS011;45163;47.690;11.770;2023-02-28T16:56:27;18.90;;;13.50;;
59366;SDS011;45163;47.690;11.770;2023-02-28T16:58:53;19.30;;;13.70;;
59366;SDS011;45163;47.690;11.770;2023-02-28T17:01:23;24.83;;;17.13;;
59366;SDS011;45163;47.690;11.770;2023-02-28T17:03:49;23.63;;;16.57;;
59366;SDS011;45163;47.690;11.770;2023-02-28T17:06:26;32.43;;;20.63;;
59366;SDS011;45163;47.690;11.770;2023-02-28T17:08:56;35.33;;;22.00;;
59366;SDS011;45163;47.690;11.770;2023-02-28T17:11:24;35.33;;;22.27;;
59366;SDS011;45163;47.690;11.770;2023-02-28T17:13:51;29.10;;;18.67;;